sensor_id;sensor_type;location;lat;lon;timestamp;P1;durP1;ratioP1;P2;durP2;ratioP2
4144;SDS011;2086;51.050;6.982;2022-07-22T00:02:12;2.63;;;2.53;;
4144;SDS011;2086;51.050;6.982;2022-07-22T00:04:37;2.90;;;2.43;;
4144;SDS011;2086;51.050;6.982;2022-07-22T00:07:02;4.00;;;3.70;;
4144;SDS011;2086;51.050;6.982;2022-07-22T00:09:28;3.00;;;2.80;;
4144;SDS011;2086;51.050;6.982;2022-07-22T00:11:54;2.20;;;2.10;;
4144;SDS011;2086;51.050;6.982;2022-07-22T00:14:19;2.17;;;1.97;;
4144;SDS011;2086;51.050;6.982;2022-07-22T00:16:44;9.40;;;3.20;;
4144;SDS011;2086;51.050;6.982;2022-07-22T00:19:10;2.80;;;2.47;;
4144;SDS011;2086;51.050;6.982;2022-07-22T00:21:35;5.47;;;2.30;;
4144;SDS011;2086;51.050;6.982;2022-07-22T00:24:00;2.23;;;2.03;;
4144;SDS011;2086;51.050;6.982;2022-07-22T00:26:26;2.77;;;1.47;;
4144;SDS011;2086;51.050;6.982;2022-07-22T00:28:51;2.60;;;1.90;;
4144;SDS011;2086;51.050;6.982;2022-07-22T00:31:16;1.73;;;1.43;;
4144;SDS011;2086;51.050;6.982;2022-07-22T00:33:41;1.33;;;1.33;;
4144;SDS011;2086;51.050;6.982;2022-07-22T00:36:07;2.03;;;1.80;;
4144;SDS011;2086;51.050;6.982;2022-07-22T00:38:32;2.30;;;2.20;;
4144;SDS011;2086;51.050;6.982;2022-07-22T00:40:57;2.30;;;1.53;;
4144;SDS011;2086;51.050;6.982;2022-07-22T00:43:23;2.67;;;2.47;;
4144;SDS011;2086;51.050;6.982;2022-07-22T00:45:48;4.60;;;2.73;;
4144;SDS011;2086;51.050;6.982;2022-07-22T00:48:14;1.17;;;1.17;;
4144;SDS011;2086;51.050;6.982;2022-07-22T00:50:39;1.60;;;1.50;;
4144;SDS011;2086;51.050;6.982;2022-07-22T00:53:04;2.20;;;2.00;;
4144;SDS011;2086;51.050;6.982;2022-07-22T00:55:29;1.77;;;1.63;;
4144;SDS011;2086;51.050;6.982;2022-07-22T00:57:55;3.20;;;2.33;;
4144;SDS011;2086;51.050;6.982;2022-07-22T01:00:21;5.77;;;2.60;;
4144;SDS011;2086;51.050;6.982;2022-07-22T01:02:46;2.37;;;2.27;;
4144;SDS011;2086;51.050;6.982;2022-07-22T01:05:11;3.07;;;2.97;;
4144;SDS011;2086;51.050;6.982;2022-07-22T01:07:37;3.60;;;2.30;;
4144;SDS011;2086;51.050;6.982;2022-07-22T01:10:03;2.13;;;1.80;;
4144;SDS011;2086;51.050;6.982;2022-07-22T01:12:28;3.83;;;1.80;;
4144;SDS011;2086;51.050;6.982;2022-07-22T01:14:53;1.60;;;1.50;;
4144;SDS011;2086;51.050;6.982;2022-07-22T01:17:19;3.23;;;2.60;;
4144;SDS011;2086;51.050;6.982;2022-07-22T01:19:44;2.63;;;2.47;;
4144;SDS011;2086;51.050;6.982;2022-07-22T01:22:10;1.93;;;1.73;;
4144;SDS011;2086;51.050;6.982;2022-07-22T01:24:35;5.67;;;2.40;;
4144;SDS011;2086;51.050;6.982;2022-07-22T01:27:00;6.77;;;2.83;;
4144;SDS011;2086;51.050;6.982;2022-07-22T01:29:26;4.60;;;1.60;;
4144;SDS011;2086;51.050;6.982;2022-07-22T01:31:51;3.03;;;2.73;;
4144;SDS011;2086;51.050;6.982;2022-07-22T01:34:16;2.83;;;2.20;;
4144;SDS011;2086;51.050;6.982;2022-07-22T01:36:42;2.70;;;2.50;;
4144;SDS011;2086;51.050;6.982;2022-07-22T01:39:07;9.93;;;2.90;;
4144;SDS011;2086;51.050;6.982;2022-07-22T01:41:32;4.20;;;2.77;;
4144;SDS011;2086;51.050;6.982;2022-07-22T01:43:58;11.97;;;3.00;;
4144;SDS011;2086;51.050;6.982;2022-07-22T01:46:23;6.93;;;2.33;;
4144;SDS011;2086;51.050;6.982;2022-07-22T01:48:50;2.47;;;2.07;;
4144;SDS011;2086;51.050;6.982;2022-07-22T01:51:15;3.23;;;3.03;;
4144;SDS011;2086;51.050;6.982;2022-07-22T01:53:41;1.90;;;1.63;;
4144;SDS011;2086;51.050;6.982;2022-07-22T01:56:06;5.43;;;3.30;;
4144;SDS011;2086;51.050;6.982;2022-07-22T01:58:31;2.67;;;2.43;;
4144;SDS011;2086;51.050;6.982;2022-07-22T02:00:57;3.40;;;3.20;;
4144;SDS011;2086;51.050;6.982;2022-07-22T02:03:22;3.93;;;2.73;;
4144;SDS011;2086;51.050;6.982;2022-07-22T02:05:47;3.93;;;2.83;;
4144;SDS011;2086;51.050;6.982;2022-07-22T02:08:13;3.13;;;2.80;;
4144;SDS011;2086;51.050;6.982;2022-07-22T02:10:38;8.47;;;3.27;;
4144;SDS011;2086;51.050;6.982;2022-07-22T02:13:04;3.40;;;3.10;;
4144;SDS011;2086;51.050;6.982;2022-07-22T02:15:29;3.30;;;2.70;;
4144;SDS011;2086;51.050;6.982;2022-07-22T02:17:55;3.73;;;3.10;;
4144;SDS011;2086;51.050;6.982;2022-07-22T02:20:20;7.23;;;3.17;;
4144;SDS011;2086;51.050;6.982;2022-07-22T02:22:46;4.03;;;3.10;;
4144;SDS011;2086;51.050;6.982;2022-07-22T02:25:11;2.50;;;2.30;;
4144;SDS011;2086;51.050;6.982;2022-07-22T02:27:36;2.23;;;2.13;;
4144;SDS011;2086;51.050;6.982;2022-07-22T02:30:03;7.03;;;2.97;;
4144;SDS011;2086;51.050;6.982;2022-07-22T02:32:29;3.83;;;3.20;;
4144;SDS011;2086;51.050;6.982;2022-07-22T02:34:54;2.33;;;2.13;;
4144;SDS011;2086;51.050;6.982;2022-07-22T02:37:19;2.77;;;2.40;;
4144;SDS011;2086;51.050;6.982;2022-07-22T02:39:44;5.70;;;2.97;;
4144;SDS011;2086;51.050;6.982;2022-07-22T02:42:10;4.30;;;3.90;;
4144;SDS011;2086;51.050;6.982;2022-07-22T02:44:35;8.70;;;3.13;;
4144;SDS011;2086;51.050;6.982;2022-07-22T02:47:00;3.30;;;2.80;;
4144;SDS011;2086;51.050;6.982;2022-07-22T02:49:26;3.20;;;3.00;;
4144;SDS011;2086;51.050;6.982;2022-07-22T02:51:51;4.07;;;2.93;;
4144;SDS011;2086;51.050;6.982;2022-07-22T02:54:16;2.83;;;2.60;;
4144;SDS011;2086;51.050;6.982;2022-07-22T02:56:41;6.77;;;3.63;;
4144;SDS011;2086;51.050;6.982;2022-07-22T02:59:07;6.53;;;2.73;;
4144;SDS011;2086;51.050;6.982;2022-07-22T03:01:32;2.20;;;1.97;;
4144;SDS011;2086;51.050;6.982;2022-07-22T03:03:57;3.50;;;3.20;;
4144;SDS011;2086;51.050;6.982;2022-07-22T03:06:22;12.10;;;3.90;;
4144;SDS011;2086;51.050;6.982;2022-07-22T03:08:48;2.17;;;2.03;;
4144;SDS011;2086;51.050;6.982;2022-07-22T03:11:13;18.30;;;3.33;;
4144;SDS011;2086;51.050;6.982;2022-07-22T03:13:38;8.07;;;3.73;;
4144;SDS011;2086;51.050;6.982;2022-07-22T03:16:04;2.87;;;2.27;;
4144;SDS011;2086;51.050;6.982;2022-07-22T03:18:29;3.17;;;2.97;;
4144;SDS011;2086;51.050;6.982;2022-07-22T03:20:54;6.57;;;3.07;;
4144;SDS011;2086;51.050;6.982;2022-07-22T03:23:19;5.47;;;2.53;;
4144;SDS011;2086;51.050;6.982;2022-07-22T03:25:45;3.57;;;3.27;;
4144;SDS011;2086;51.050;6.982;2022-07-22T03:28:10;3.70;;;3.40;;
4144;SDS011;2086;51.050;6.982;2022-07-22T03:30:35;3.20;;;2.90;;
4144;SDS011;2086;51.050;6.982;2022-07-22T03:33:01;30.67;;;4.00;;
4144;SDS011;2086;51.050;6.982;2022-07-22T03:35:26;4.63;;;2.57;;
4144;SDS011;2086;51.050;6.982;2022-07-22T03:37:51;2.77;;;2.67;;
4144;SDS011;2086;51.050;6.982;2022-07-22T03:40:16;4.47;;;3.60;;
4144;SDS011;2086;51.050;6.982;2022-07-22T03:42:42;4.80;;;3.20;;
4144;SDS011;2086;51.050;6.982;2022-07-22T03:45:08;3.47;;;3.03;;
4144;SDS011;2086;51.050;6.982;2022-07-22T03:47:33;7.60;;;3.53;;
4144;SDS011;2086;51.050;6.982;2022-07-22T03:49:58;6.37;;;3.43;;
4144;SDS011;2086;51.050;6.982;2022-07-22T03:52:24;3.53;;;3.30;;
4144;SDS011;2086;51.050;6.982;2022-07-22T03:54:49;3.10;;;2.90;;
4144;SDS011;2086;51.050;6.982;2022-07-22T03:57:15;5.43;;;3.30;;
4144;SDS011;2086;51.050;6.982;2022-07-22T03:59:40;3.70;;;3.43;;
4144;SDS011;2086;51.050;6.982;2022-07-22T04:02:05;2.80;;;2.60;;
4144;SDS011;2086;51.050;6.982;2022-07-22T04:04:30;8.50;;;3.13;;
4144;SDS011;2086;51.050;6.982;2022-07-22T04:06:56;7.33;;;3.47;;
4144;SDS011;2086;51.050;6.982;2022-07-22T04:09:21;2.80;;;2.60;;
4144;SDS011;2086;51.050;6.982;2022-07-22T04:11:47;6.53;;;4.23;;
4144;SDS011;2086;51.050;6.982;2022-07-22T04:14:12;2.90;;;2.70;;
4144;SDS011;2086;51.050;6.982;2022-07-22T04:16:38;3.27;;;3.03;;
4144;SDS011;2086;51.050;6.982;2022-07-22T04:19:03;3.63;;;2.87;;
4144;SDS011;2086;51.050;6.982;2022-07-22T04:21:28;10.30;;;3.80;;
4144;SDS011;2086;51.050;6.982;2022-07-22T04:23:54;5.90;;;3.03;;
4144;SDS011;2086;51.050;6.982;2022-07-22T04:26:19;6.97;;;4.30;;
4144;SDS011;2086;51.050;6.982;2022-07-22T04:28:45;7.90;;;3.97;;
4144;SDS011;2086;51.050;6.982;2022-07-22T04:31:10;4.60;;;3.97;;
4144;SDS011;2086;51.050;6.982;2022-07-22T04:33:35;7.00;;;3.93;;
4144;SDS011;2086;51.050;6.982;2022-07-22T04:36:00;4.70;;;3.70;;
4144;SDS011;2086;51.050;6.982;2022-07-22T04:38:26;3.73;;;3.53;;
4144;SDS011;2086;51.050;6.982;2022-07-22T04:40:51;3.33;;;3.13;;
4144;SDS011;2086;51.050;6.982;2022-07-22T04:43:16;4.17;;;3.37;;
4144;SDS011;2086;51.050;6.982;2022-07-22T04:45:41;6.00;;;3.33;;
4144;SDS011;2086;51.050;6.982;2022-07-22T04:48:06;4.60;;;3.67;;
4144;SDS011;2086;51.050;6.982;2022-07-22T04:50:32;3.80;;;2.77;;
4144;SDS011;2086;51.050;6.982;2022-07-22T04:52:57;10.90;;;4.23;;
4144;SDS011;2086;51.050;6.982;2022-07-22T04:55:22;5.23;;;4.50;;
4144;SDS011;2086;51.050;6.982;2022-07-22T04:57:47;3.53;;;2.70;;
4144;SDS011;2086;51.050;6.982;2022-07-22T05:00:13;6.03;;;3.20;;
4144;SDS011;2086;51.050;6.982;2022-07-22T05:02:40;2.87;;;2.67;;
4144;SDS011;2086;51.050;6.982;2022-07-22T05:05:06;9.10;;;4.37;;
4144;SDS011;2086;51.050;6.982;2022-07-22T05:07:31;9.27;;;5.27;;
4144;SDS011;2086;51.050;6.982;2022-07-22T05:09:56;11.47;;;4.27;;
4144;SDS011;2086;51.050;6.982;2022-07-22T05:12:21;5.33;;;3.50;;
4144;SDS011;2086;51.050;6.982;2022-07-22T05:14:47;7.33;;;4.60;;
4144;SDS011;2086;51.050;6.982;2022-07-22T05:17:12;11.00;;;4.67;;
4144;SDS011;2086;51.050;6.982;2022-07-22T05:19:38;8.10;;;4.03;;
4144;SDS011;2086;51.050;6.982;2022-07-22T05:22:04;13.00;;;5.50;;
4144;SDS011;2086;51.050;6.982;2022-07-22T05:24:29;9.80;;;4.60;;
4144;SDS011;2086;51.050;6.982;2022-07-22T05:26:54;10.00;;;3.83;;
4144;SDS011;2086;51.050;6.982;2022-07-22T05:29:19;6.47;;;5.80;;
4144;SDS011;2086;51.050;6.982;2022-07-22T05:31:45;6.80;;;5.40;;
4144;SDS011;2086;51.050;6.982;2022-07-22T05:34:10;4.47;;;3.40;;
4144;SDS011;2086;51.050;6.982;2022-07-22T05:36:35;7.43;;;4.30;;
4144;SDS011;2086;51.050;6.982;2022-07-22T05:39:01;4.77;;;4.37;;
4144;SDS011;2086;51.050;6.982;2022-07-22T05:41:26;3.40;;;3.10;;
4144;SDS011;2086;51.050;6.982;2022-07-22T05:43:51;2.90;;;1.97;;
4144;SDS011;2086;51.050;6.982;2022-07-22T05:46:16;3.00;;;2.13;;
4144;SDS011;2086;51.050;6.982;2022-07-22T05:48:42;2.83;;;1.80;;
4144;SDS011;2086;51.050;6.982;2022-07-22T05:51:10;2.50;;;2.40;;
4144;SDS011;2086;51.050;6.982;2022-07-22T05:53:36;4.10;;;1.70;;
4144;SDS011;2086;51.050;6.982;2022-07-22T05:56:01;1.97;;;1.87;;
4144;SDS011;2086;51.050;6.982;2022-07-22T05:58:27;10.07;;;2.07;;
4144;SDS011;2086;51.050;6.982;2022-07-22T06:00:52;5.37;;;1.57;;
4144;SDS011;2086;51.050;6.982;2022-07-22T06:03:17;3.23;;;1.80;;
4144;SDS011;2086;51.050;6.982;2022-07-22T06:05:42;7.93;;;1.50;;
4144;SDS011;2086;51.050;6.982;2022-07-22T06:08:07;2.90;;;1.73;;
4144;SDS011;2086;51.050;6.982;2022-07-22T06:10:33;1.13;;;1.03;;
4144;SDS011;2086;51.050;6.982;2022-07-22T06:12:58;1.90;;;1.20;;
4144;SDS011;2086;51.050;6.982;2022-07-22T06:15:24;1.47;;;0.80;;
4144;SDS011;2086;51.050;6.982;2022-07-22T06:17:49;4.97;;;1.13;;
4144;SDS011;2086;51.050;6.982;2022-07-22T06:20:14;1.40;;;1.30;;
4144;SDS011;2086;51.050;6.982;2022-07-22T06:22:40;3.93;;;0.93;;
4144;SDS011;2086;51.050;6.982;2022-07-22T06:25:05;2.10;;;1.23;;
4144;SDS011;2086;51.050;6.982;2022-07-22T06:27:31;1.53;;;1.40;;
4144;SDS011;2086;51.050;6.982;2022-07-22T06:29:56;4.73;;;1.70;;
4144;SDS011;2086;51.050;6.982;2022-07-22T06:32:21;1.43;;;1.10;;
4144;SDS011;2086;51.050;6.982;2022-07-22T06:34:46;1.90;;;1.20;;
4144;SDS011;2086;51.050;6.982;2022-07-22T06:37:12;1.23;;;1.13;;
4144;SDS011;2086;51.050;6.982;2022-07-22T06:39:37;2.53;;;1.77;;
4144;SDS011;2086;51.050;6.982;2022-07-22T06:42:02;1.63;;;1.00;;
4144;SDS011;2086;51.050;6.982;2022-07-22T06:44:27;2.50;;;1.37;;
4144;SDS011;2086;51.050;6.982;2022-07-22T06:46:53;2.03;;;1.93;;
4144;SDS011;2086;51.050;6.982;2022-07-22T06:49:18;2.03;;;1.60;;
4144;SDS011;2086;51.050;6.982;2022-07-22T06:51:43;1.70;;;1.60;;
4144;SDS011;2086;51.050;6.982;2022-07-22T06:54:08;2.50;;;2.20;;
4144;SDS011;2086;51.050;6.982;2022-07-22T06:56:34;3.37;;;2.00;;
4144;SDS011;2086;51.050;6.982;2022-07-22T06:58:59;1.90;;;1.80;;
4144;SDS011;2086;51.050;6.982;2022-07-22T07:01:24;2.00;;;1.33;;
4144;SDS011;2086;51.050;6.982;2022-07-22T07:03:49;3.10;;;1.87;;
4144;SDS011;2086;51.050;6.982;2022-07-22T07:06:15;3.07;;;1.67;;
4144;SDS011;2086;51.050;6.982;2022-07-22T07:08:40;6.43;;;2.70;;
4144;SDS011;2086;51.050;6.982;2022-07-22T07:11:06;3.03;;;2.40;;
4144;SDS011;2086;51.050;6.982;2022-07-22T07:13:31;2.80;;;2.20;;
4144;SDS011;2086;51.050;6.982;2022-07-22T07:15:56;4.83;;;2.00;;
4144;SDS011;2086;51.050;6.982;2022-07-22T07:18:22;2.63;;;2.10;;
4144;SDS011;2086;51.050;6.982;2022-07-22T07:20:47;2.43;;;2.10;;
4144;SDS011;2086;51.050;6.982;2022-07-22T07:23:12;4.30;;;2.63;;
4144;SDS011;2086;51.050;6.982;2022-07-22T07:25:38;2.50;;;2.33;;
4144;SDS011;2086;51.050;6.982;2022-07-22T07:28:03;3.43;;;2.10;;
4144;SDS011;2086;51.050;6.982;2022-07-22T07:30:28;7.33;;;2.70;;
4144;SDS011;2086;51.050;6.982;2022-07-22T07:32:53;2.30;;;2.20;;
4144;SDS011;2086;51.050;6.982;2022-07-22T07:35:19;3.13;;;2.93;;
4144;SDS011;2086;51.050;6.982;2022-07-22T07:37:44;7.73;;;3.00;;
4144;SDS011;2086;51.050;6.982;2022-07-22T07:40:10;3.00;;;2.80;;
4144;SDS011;2086;51.050;6.982;2022-07-22T07:42:35;2.60;;;2.50;;
4144;SDS011;2086;51.050;6.982;2022-07-22T07:45:00;6.53;;;2.80;;
4144;SDS011;2086;51.050;6.982;2022-07-22T07:47:26;3.40;;;3.20;;
4144;SDS011;2086;51.050;6.982;2022-07-22T07:49:51;3.47;;;3.27;;
4144;SDS011;2086;51.050;6.982;2022-07-22T07:52:17;4.17;;;3.23;;
4144;SDS011;2086;51.050;6.982;2022-07-22T07:54:42;3.03;;;2.83;;
4144;SDS011;2086;51.050;6.982;2022-07-22T07:57:08;3.93;;;3.57;;
4144;SDS011;2086;51.050;6.982;2022-07-22T07:59:35;4.27;;;3.90;;
4144;SDS011;2086;51.050;6.982;2022-07-22T08:02:00;3.87;;;3.57;;
4144;SDS011;2086;51.050;6.982;2022-07-22T08:04:25;10.20;;;3.90;;
4144;SDS011;2086;51.050;6.982;2022-07-22T08:06:51;3.87;;;2.70;;
4144;SDS011;2086;51.050;6.982;2022-07-22T08:09:16;17.67;;;3.83;;
4144;SDS011;2086;51.050;6.982;2022-07-22T08:11:41;3.33;;;3.13;;
4144;SDS011;2086;51.050;6.982;2022-07-22T08:14:06;2.90;;;2.57;;
4144;SDS011;2086;51.050;6.982;2022-07-22T08:16:32;2.43;;;2.23;;
4144;SDS011;2086;51.050;6.982;2022-07-22T08:18:57;3.73;;;3.43;;
4144;SDS011;2086;51.050;6.982;2022-07-22T08:21:22;2.87;;;2.67;;
4144;SDS011;2086;51.050;6.982;2022-07-22T08:23:48;5.00;;;3.70;;
4144;SDS011;2086;51.050;6.982;2022-07-22T08:26:13;4.20;;;3.00;;
4144;SDS011;2086;51.050;6.982;2022-07-22T08:28:38;8.60;;;3.63;;
4144;SDS011;2086;51.050;6.982;2022-07-22T08:31:04;3.13;;;2.83;;
4144;SDS011;2086;51.050;6.982;2022-07-22T08:33:29;3.20;;;2.40;;
4144;SDS011;2086;51.050;6.982;2022-07-22T08:35:54;3.90;;;3.60;;
4144;SDS011;2086;51.050;6.982;2022-07-22T08:38:19;3.60;;;3.33;;
4144;SDS011;2086;51.050;6.982;2022-07-22T08:40:45;3.73;;;3.53;;
4144;SDS011;2086;51.050;6.982;2022-07-22T08:43:10;5.10;;;3.13;;
4144;SDS011;2086;51.050;6.982;2022-07-22T08:45:35;3.10;;;2.90;;
4144;SDS011;2086;51.050;6.982;2022-07-22T08:48:01;3.80;;;2.80;;
4144;SDS011;2086;51.050;6.982;2022-07-22T08:50:28;3.63;;;3.27;;
4144;SDS011;2086;51.050;6.982;2022-07-22T08:52:53;4.83;;;3.30;;
4144;SDS011;2086;51.050;6.982;2022-07-22T08:55:19;4.70;;;4.10;;
4144;SDS011;2086;51.050;6.982;2022-07-22T08:57:48;6.30;;;4.70;;
4144;SDS011;2086;51.050;6.982;2022-07-22T09:00:18;7.00;;;4.00;;
4144;SDS011;2086;51.050;6.982;2022-07-22T09:02:43;3.50;;;3.30;;
4144;SDS011;2086;51.050;6.982;2022-07-22T09:05:10;3.90;;;3.60;;
4144;SDS011;2086;51.050;6.982;2022-07-22T09:07:36;5.83;;;3.30;;
4144;SDS011;2086;51.050;6.982;2022-07-22T09:10:05;4.83;;;4.33;;
4144;SDS011;2086;51.050;6.982;2022-07-22T09:12:31;3.10;;;2.80;;
4144;SDS011;2086;51.050;6.982;2022-07-22T09:14:58;3.90;;;3.60;;
4144;SDS011;2086;51.050;6.982;2022-07-22T09:19:49;3.97;;;3.47;;
4144;SDS011;2086;51.050;6.982;2022-07-22T09:22:14;4.70;;;4.27;;
4144;SDS011;2086;51.050;6.982;2022-07-22T09:24:39;3.30;;;3.00;;
4144;SDS011;2086;51.050;6.982;2022-07-22T09:27:05;2.90;;;2.70;;
4144;SDS011;2086;51.050;6.982;2022-07-22T09:29:33;4.03;;;3.70;;
4144;SDS011;2086;51.050;6.982;2022-07-22T09:31:58;3.43;;;3.27;;
4144;SDS011;2086;51.050;6.982;2022-07-22T09:34:29;5.10;;;3.77;;
4144;SDS011;2086;51.050;6.982;2022-07-22T09:36:56;6.13;;;3.40;;
4144;SDS011;2086;51.050;6.982;2022-07-22T09:39:25;4.97;;;4.57;;
4144;SDS011;2086;51.050;6.982;2022-07-22T09:42:02;3.40;;;3.10;;
4144;SDS011;2086;51.050;6.982;2022-07-22T09:44:27;6.10;;;3.63;;
4144;SDS011;2086;51.050;6.982;2022-07-22T09:46:52;3.10;;;2.90;;
4144;SDS011;2086;51.050;6.982;2022-07-22T09:49:34;3.50;;;3.30;;
4144;SDS011;2086;51.050;6.982;2022-07-22T09:52:00;3.00;;;2.80;;
4144;SDS011;2086;51.050;6.982;2022-07-22T09:54:25;2.77;;;2.67;;
4144;SDS011;2086;51.050;6.982;2022-07-22T09:56:51;2.70;;;2.50;;
4144;SDS011;2086;51.050;6.982;2022-07-22T09:59:16;3.10;;;2.80;;
4144;SDS011;2086;51.050;6.982;2022-07-22T10:01:42;2.90;;;2.77;;
4144;SDS011;2086;51.050;6.982;2022-07-22T10:04:07;2.33;;;2.20;;
4144;SDS011;2086;51.050;6.982;2022-07-22T10:06:37;3.50;;;3.20;;
4144;SDS011;2086;51.050;6.982;2022-07-22T10:09:02;2.93;;;2.63;;
4144;SDS011;2086;51.050;6.982;2022-07-22T10:11:28;3.07;;;2.50;;
4144;SDS011;2086;51.050;6.982;2022-07-22T10:13:53;4.10;;;3.37;;
4144;SDS011;2086;51.050;6.982;2022-07-22T10:16:19;3.87;;;2.63;;
4144;SDS011;2086;51.050;6.982;2022-07-22T10:18:45;6.83;;;3.00;;
4144;SDS011;2086;51.050;6.982;2022-07-22T10:21:11;3.27;;;3.07;;
4144;SDS011;2086;51.050;6.982;2022-07-22T10:23:36;4.40;;;3.57;;
4144;SDS011;2086;51.050;6.982;2022-07-22T10:26:21;3.87;;;3.67;;
4144;SDS011;2086;51.050;6.982;2022-07-22T10:34:37;2.43;;;2.23;;
4144;SDS011;2086;51.050;6.982;2022-07-22T10:37:02;3.97;;;3.30;;
4144;SDS011;2086;51.050;6.982;2022-07-22T10:39:28;4.70;;;3.53;;
4144;SDS011;2086;51.050;6.982;2022-07-22T10:41:53;4.23;;;3.83;;
4144;SDS011;2086;51.050;6.982;2022-07-22T10:47:02;3.13;;;2.93;;
4144;SDS011;2086;51.050;6.982;2022-07-22T10:49:27;3.10;;;2.80;;
4144;SDS011;2086;51.050;6.982;2022-07-22T10:52:08;3.80;;;3.20;;
4144;SDS011;2086;51.050;6.982;2022-07-22T10:54:33;2.90;;;2.67;;
4144;SDS011;2086;51.050;6.982;2022-07-22T10:57:01;4.07;;;3.67;;
4144;SDS011;2086;51.050;6.982;2022-07-22T10:59:27;4.90;;;3.73;;
4144;SDS011;2086;51.050;6.982;2022-07-22T11:01:52;3.93;;;3.63;;
4144;SDS011;2086;51.050;6.982;2022-07-22T11:04:26;7.63;;;3.33;;
4144;SDS011;2086;51.050;6.982;2022-07-22T11:06:52;3.40;;;3.20;;
4144;SDS011;2086;51.050;6.982;2022-07-22T11:09:19;3.27;;;2.97;;
4144;SDS011;2086;51.050;6.982;2022-07-22T11:14:14;5.83;;;3.10;;
4144;SDS011;2086;51.050;6.982;2022-07-22T11:16:39;4.33;;;3.30;;
4144;SDS011;2086;51.050;6.982;2022-07-22T11:19:05;3.67;;;3.47;;
4144;SDS011;2086;51.050;6.982;2022-07-22T11:21:31;3.77;;;3.17;;
4144;SDS011;2086;51.050;6.982;2022-07-22T11:23:58;4.40;;;3.70;;
4144;SDS011;2086;51.050;6.982;2022-07-22T11:26:45;4.00;;;3.63;;
4144;SDS011;2086;51.050;6.982;2022-07-22T11:29:10;3.13;;;2.83;;
4144;SDS011;2086;51.050;6.982;2022-07-22T11:31:37;3.60;;;2.60;;
4144;SDS011;2086;51.050;6.982;2022-07-22T11:34:13;7.10;;;3.00;;
4144;SDS011;2086;51.050;6.982;2022-07-22T11:36:40;4.00;;;2.90;;
4144;SDS011;2086;51.050;6.982;2022-07-22T11:39:06;5.00;;;2.63;;
4144;SDS011;2086;51.050;6.982;2022-07-22T11:41:32;3.27;;;3.07;;
4144;SDS011;2086;51.050;6.982;2022-07-22T11:43:57;3.10;;;2.50;;
4144;SDS011;2086;51.050;6.982;2022-07-22T11:46:22;3.20;;;3.03;;
4144;SDS011;2086;51.050;6.982;2022-07-22T11:48:50;3.27;;;3.07;;
4144;SDS011;2086;51.050;6.982;2022-07-22T11:51:15;3.73;;;3.43;;
4144;SDS011;2086;51.050;6.982;2022-07-22T11:53:41;3.00;;;2.80;;
4144;SDS011;2086;51.050;6.982;2022-07-22T11:56:07;3.77;;;3.47;;
4144;SDS011;2086;51.050;6.982;2022-07-22T12:01:01;5.10;;;3.70;;
4144;SDS011;2086;51.050;6.982;2022-07-22T12:03:26;4.13;;;3.73;;
4144;SDS011;2086;51.050;6.982;2022-07-22T12:05:52;5.93;;;4.17;;
4144;SDS011;2086;51.050;6.982;2022-07-22T12:08:18;4.17;;;3.87;;
4144;SDS011;2086;51.050;6.982;2022-07-22T12:10:43;3.87;;;3.60;;
4144;SDS011;2086;51.050;6.982;2022-07-22T12:13:11;5.23;;;4.00;;
4144;SDS011;2086;51.050;6.982;2022-07-22T12:15:38;3.73;;;3.37;;
4144;SDS011;2086;51.050;6.982;2022-07-22T12:20:44;4.87;;;4.37;;
4144;SDS011;2086;51.050;6.982;2022-07-22T12:23:10;6.53;;;3.80;;
4144;SDS011;2086;51.050;6.982;2022-07-22T12:25:48;4.20;;;3.70;;
4144;SDS011;2086;51.050;6.982;2022-07-22T12:28:14;3.90;;;3.60;;
4144;SDS011;2086;51.050;6.982;2022-07-22T12:30:39;4.70;;;4.40;;
4144;SDS011;2086;51.050;6.982;2022-07-22T12:33:05;7.10;;;4.50;;
4144;SDS011;2086;51.050;6.982;2022-07-22T12:35:37;5.20;;;3.77;;
4144;SDS011;2086;51.050;6.982;2022-07-22T12:38:05;3.43;;;3.23;;
4144;SDS011;2086;51.050;6.982;2022-07-22T12:40:31;4.37;;;4.07;;
4144;SDS011;2086;51.050;6.982;2022-07-22T12:43:03;4.13;;;3.80;;
4144;SDS011;2086;51.050;6.982;2022-07-22T12:45:29;3.63;;;3.43;;
4144;SDS011;2086;51.050;6.982;2022-07-22T12:55:29;2.83;;;2.67;;
4144;SDS011;2086;51.050;6.982;2022-07-22T12:57:54;5.03;;;2.63;;
4144;SDS011;2086;51.050;6.982;2022-07-22T13:00:20;8.40;;;3.50;;
4144;SDS011;2086;51.050;6.982;2022-07-22T13:02:53;3.87;;;3.43;;
4144;SDS011;2086;51.050;6.982;2022-07-22T13:05:18;4.17;;;3.87;;
4144;SDS011;2086;51.050;6.982;2022-07-22T13:07:44;4.90;;;3.70;;
4144;SDS011;2086;51.050;6.982;2022-07-22T13:10:10;3.80;;;3.50;;
4144;SDS011;2086;51.050;6.982;2022-07-22T13:12:36;3.80;;;3.50;;
4144;SDS011;2086;51.050;6.982;2022-07-22T13:15:01;4.20;;;3.77;;
4144;SDS011;2086;51.050;6.982;2022-07-22T13:17:27;3.80;;;3.60;;
4144;SDS011;2086;51.050;6.982;2022-07-22T13:19:52;8.63;;;3.53;;
4144;SDS011;2086;51.050;6.982;2022-07-22T13:22:18;3.60;;;3.43;;
4144;SDS011;2086;51.050;6.982;2022-07-22T13:24:43;3.50;;;3.30;;
4144;SDS011;2086;51.050;6.982;2022-07-22T13:27:08;4.50;;;4.10;;
4144;SDS011;2086;51.050;6.982;2022-07-22T13:29:33;3.33;;;2.70;;
4144;SDS011;2086;51.050;6.982;2022-07-22T13:31:59;4.00;;;3.70;;
4144;SDS011;2086;51.050;6.982;2022-07-22T13:34:24;3.50;;;3.20;;
4144;SDS011;2086;51.050;6.982;2022-07-22T13:36:49;3.20;;;3.00;;
4144;SDS011;2086;51.050;6.982;2022-07-22T13:39:14;4.93;;;3.80;;
4144;SDS011;2086;51.050;6.982;2022-07-22T13:41:40;3.43;;;3.13;;
4144;SDS011;2086;51.050;6.982;2022-07-22T13:44:05;3.93;;;3.50;;
4144;SDS011;2086;51.050;6.982;2022-07-22T13:46:34;3.40;;;3.20;;
4144;SDS011;2086;51.050;6.982;2022-07-22T13:48:59;3.07;;;2.87;;
4144;SDS011;2086;51.050;6.982;2022-07-22T13:51:24;2.90;;;2.70;;
4144;SDS011;2086;51.050;6.982;2022-07-22T13:53:50;3.83;;;3.53;;
4144;SDS011;2086;51.050;6.982;2022-07-22T13:56:15;3.93;;;3.63;;
4144;SDS011;2086;51.050;6.982;2022-07-22T13:58:40;5.57;;;3.77;;
4144;SDS011;2086;51.050;6.982;2022-07-22T14:01:06;3.97;;;3.67;;
4144;SDS011;2086;51.050;6.982;2022-07-22T14:03:31;3.90;;;3.60;;
4144;SDS011;2086;51.050;6.982;2022-07-22T14:05:57;3.53;;;3.33;;
4144;SDS011;2086;51.050;6.982;2022-07-22T14:08:22;3.80;;;3.50;;
4144;SDS011;2086;51.050;6.982;2022-07-22T14:10:47;5.47;;;4.10;;
4144;SDS011;2086;51.050;6.982;2022-07-22T14:13:12;5.13;;;4.53;;
4144;SDS011;2086;51.050;6.982;2022-07-22T14:15:38;4.70;;;4.40;;
4144;SDS011;2086;51.050;6.982;2022-07-22T14:18:03;4.00;;;3.70;;
4144;SDS011;2086;51.050;6.982;2022-07-22T14:20:31;4.73;;;4.27;;
4144;SDS011;2086;51.050;6.982;2022-07-22T14:22:56;4.50;;;4.17;;
4144;SDS011;2086;51.050;6.982;2022-07-22T14:25:21;5.47;;;4.17;;
4144;SDS011;2086;51.050;6.982;2022-07-22T14:27:47;6.67;;;4.23;;
4144;SDS011;2086;51.050;6.982;2022-07-22T14:30:13;4.80;;;3.90;;
4144;SDS011;2086;51.050;6.982;2022-07-22T14:32:38;4.63;;;4.10;;
4144;SDS011;2086;51.050;6.982;2022-07-22T14:35:03;5.90;;;3.90;;
4144;SDS011;2086;51.050;6.982;2022-07-22T14:37:30;4.90;;;4.40;;
4144;SDS011;2086;51.050;6.982;2022-07-22T14:39:56;6.07;;;4.70;;
4144;SDS011;2086;51.050;6.982;2022-07-22T14:42:21;6.93;;;5.03;;
4144;SDS011;2086;51.050;6.982;2022-07-22T14:44:46;5.10;;;4.10;;
4144;SDS011;2086;51.050;6.982;2022-07-22T14:47:12;7.87;;;2.77;;
4144;SDS011;2086;51.050;6.982;2022-07-22T14:49:37;8.43;;;4.60;;
4144;SDS011;2086;51.050;6.982;2022-07-22T14:52:02;4.33;;;3.93;;
4144;SDS011;2086;51.050;6.982;2022-07-22T14:54:27;4.93;;;4.43;;
4144;SDS011;2086;51.050;6.982;2022-07-22T14:56:53;5.30;;;4.80;;
4144;SDS011;2086;51.050;6.982;2022-07-22T14:59:18;4.60;;;4.20;;
4144;SDS011;2086;51.050;6.982;2022-07-22T15:01:43;4.73;;;4.43;;
4144;SDS011;2086;51.050;6.982;2022-07-22T15:04:08;6.17;;;5.33;;
4144;SDS011;2086;51.050;6.982;2022-07-22T15:06:34;7.03;;;4.60;;
4144;SDS011;2086;51.050;6.982;2022-07-22T15:08:59;5.87;;;5.27;;
4144;SDS011;2086;51.050;6.982;2022-07-22T15:11:24;6.43;;;4.00;;
4144;SDS011;2086;51.050;6.982;2022-07-22T15:13:49;9.63;;;5.77;;
4144;SDS011;2086;51.050;6.982;2022-07-22T15:16:15;8.07;;;5.27;;
4144;SDS011;2086;51.050;6.982;2022-07-22T15:18:40;6.77;;;5.03;;
4144;SDS011;2086;51.050;6.982;2022-07-22T15:21:05;6.00;;;5.10;;
4144;SDS011;2086;51.050;6.982;2022-07-22T15:23:31;8.83;;;5.30;;
4144;SDS011;2086;51.050;6.982;2022-07-22T15:25:59;5.93;;;4.43;;
4144;SDS011;2086;51.050;6.982;2022-07-22T15:28:25;6.90;;;4.60;;
4144;SDS011;2086;51.050;6.982;2022-07-22T15:30:51;4.70;;;4.40;;
4144;SDS011;2086;51.050;6.982;2022-07-22T15:33:16;4.20;;;3.90;;